createdAt,value
2023-04-16T00:00:46.104Z,99.99
2023-04-16T00:01:46.144Z,99.99
2023-04-16T00:02:46.324Z,99.99
2023-04-16T00:03:46.312Z,99.99
2023-04-16T00:04:46.049Z,99.99
2023-04-16T00:05:46.011Z,99.99
2023-04-16T00:06:46.043Z,99.99
2023-04-16T00:07:46.967Z,99.99
2023-04-16T00:08:46.007Z,99.99
2023-04-16T00:09:46.142Z,99.99
2023-04-16T00:10:46.820Z,99.99
2023-04-16T00:11:45.949Z,99.99
2023-04-16T00:12:46.403Z,99.99
2023-04-16T00:13:46.042Z,99.99
2023-04-16T00:14:45.910Z,99.99
2023-04-16T00:15:45.929Z,99.99
2023-04-16T00:16:45.973Z,99.99
2023-04-16T00:17:45.906Z,99.99
2023-04-16T00:18:45.886Z,99.99
2023-04-16T00:19:45.925Z,99.99
2023-04-16T00:20:45.872Z,99.99
2023-04-16T00:21:45.859Z,99.99
2023-04-16T00:22:45.810Z,99.99
2023-04-16T00:23:45.819Z,99.99
2023-04-16T00:24:45.778Z,99.99
2023-04-16T00:25:45.798Z,99.99
2023-04-16T00:26:45.820Z,99.99
2023-04-16T00:27:45.780Z,99.99
2023-04-16T00:28:45.735Z,99.99
2023-04-16T00:29:45.770Z,99.99
2023-04-16T00:30:45.770Z,99.99
2023-04-16T00:31:45.731Z,99.99
2023-04-16T00:32:45.779Z,99.99
2023-04-16T00:33:45.742Z,99.99
2023-04-16T00:34:45.710Z,99.99
2023-04-16T00:35:45.728Z,99.99
2023-04-16T00:36:45.756Z,99.99
2023-04-16T00:37:45.652Z,99.99
2023-04-16T00:38:45.639Z,99.99
2023-04-16T00:39:45.667Z,99.99
2023-04-16T00:40:45.649Z,99.99
2023-04-16T00:41:45.626Z,99.99
2023-04-16T00:42:45.595Z,99.99
2023-04-16T00:43:45.621Z,99.99
2023-04-16T00:44:45.602Z,99.99
2023-04-16T00:45:45.654Z,99.99
2023-04-16T00:46:45.603Z,99.99
2023-04-16T00:47:45.608Z,99.99
2023-04-16T00:48:45.562Z,99.99
2023-04-16T00:49:45.576Z,99.99
2023-04-16T00:50:45.537Z,99.99
2023-04-16T00:51:45.507Z,99.99
2023-04-16T00:52:45.466Z,99.99
2023-04-16T00:53:45.506Z,99.99
2023-04-16T00:54:45.493Z,99.99
2023-04-16T00:55:45.476Z,99.99
2023-04-16T00:56:45.446Z,99.99
2023-04-16T00:57:45.492Z,99.99
2023-04-16T00:58:45.458Z,99.99
2023-04-16T00:59:45.445Z,99.99
2023-04-16T01:00:45.402Z,99.99
2023-04-16T01:01:45.462Z,99.99
2023-04-16T01:02:45.459Z,99.99
2023-04-16T01:03:45.471Z,99.99
2023-04-16T01:04:45.382Z,99.99
2023-04-16T01:05:45.370Z,99.99
2023-04-16T01:06:45.352Z,99.99
2023-04-16T01:07:45.316Z,99.99
2023-04-16T01:08:45.348Z,99.99
2023-04-16T01:09:45.410Z,99.99
2023-04-16T01:10:45.298Z,99.99
2023-04-16T01:11:45.277Z,99.99
2023-04-16T01:12:45.337Z,99.99
2023-04-16T01:13:45.323Z,99.99
2023-04-16T01:14:45.238Z,99.99
2023-04-16T01:15:45.372Z,99.99
2023-04-16T01:16:45.272Z,99.99
2023-04-16T01:17:45.305Z,99.99
2023-04-16T01:18:45.213Z,99.99
2023-04-16T01:19:45.213Z,99.99
2023-04-16T01:20:45.241Z,99.99
2023-04-16T01:21:45.219Z,99.99
2023-04-16T01:22:45.222Z,99.99
2023-04-16T01:23:45.163Z,99.99
2023-04-16T01:24:45.168Z,99.99
2023-04-16T01:25:45.187Z,99.99
2023-04-16T01:26:45.161Z,99.99
2023-04-16T01:27:45.148Z,99.99
2023-04-16T01:28:45.125Z,99.99
2023-04-16T01:29:45.168Z,99.99
2023-04-16T01:30:45.162Z,99.99
2023-04-16T01:31:45.232Z,99.99
2023-04-16T01:32:45.109Z,99.99
2023-04-16T01:33:45.077Z,99.99
2023-04-16T01:34:45.036Z,99.99
2023-04-16T01:35:45.063Z,99.99
2023-04-16T01:36:45.015Z,99.99
2023-04-16T01:37:45.016Z,99.99
2023-04-16T01:38:45.004Z,99.99
2023-04-16T01:39:45.025Z,99.99
2023-04-16T01:40:44.956Z,99.99
2023-04-16T01:41:44.985Z,99.99
2023-04-16T01:42:44.972Z,99.99
2023-04-16T01:43:45.006Z,99.99
2023-04-16T01:44:44.917Z,99.99
2023-04-16T01:45:44.958Z,99.99
2023-04-16T01:46:44.996Z,99.99
2023-04-16T01:47:44.942Z,99.99
2023-04-16T01:48:44.935Z,99.99
2023-04-16T01:49:44.896Z,99.99
2023-04-16T01:50:44.863Z,99.99
2023-04-16T01:51:44.865Z,99.99
2023-04-16T01:52:44.859Z,99.99
2023-04-16T01:53:44.894Z,99.99
2023-04-16T01:54:44.913Z,99.99
2023-04-16T01:55:44.823Z,99.99
2023-04-16T01:56:44.792Z,99.99
2023-04-16T01:57:44.816Z,99.99
2023-04-16T01:58:44.840Z,99.99
2023-04-16T01:59:44.764Z,99.99
2023-04-16T02:00:44.768Z,99.99
2023-04-16T02:01:44.830Z,99.99
2023-04-16T02:02:44.851Z,99.99
2023-04-16T02:03:45.028Z,99.99
2023-04-16T02:04:44.723Z,99.99
2023-04-16T02:05:44.721Z,99.99
2023-04-16T02:06:44.698Z,99.99
2023-04-16T02:07:44.743Z,99.99
2023-04-16T02:08:44.681Z,99.99
2023-04-16T02:09:44.708Z,99.99
2023-04-16T02:10:44.663Z,99.99
2023-04-16T02:11:44.637Z,99.99
2023-04-16T02:12:44.642Z,99.99
2023-04-16T02:13:44.645Z,99.99
2023-04-16T02:14:44.640Z,99.99
2023-04-16T02:15:44.686Z,99.99
2023-04-16T02:16:44.665Z,99.99
2023-04-16T02:17:44.618Z,99.99
2023-04-16T02:18:44.580Z,99.99
2023-04-16T02:19:44.556Z,99.99
2023-04-16T02:20:44.587Z,99.99
2023-04-16T02:21:44.560Z,99.99
2023-04-16T02:22:44.514Z,99.99
2023-04-16T02:23:44.537Z,99.99
2023-04-16T02:24:44.523Z,99.99
2023-04-16T02:25:44.489Z,99.99
2023-04-16T02:26:44.469Z,99.99
2023-04-16T02:27:44.485Z,99.99
2023-04-16T02:28:44.449Z,99.99
2023-04-16T02:29:44.498Z,99.99
2023-04-16T02:30:44.445Z,99.99
2023-04-16T02:31:44.586Z,99.99
2023-04-16T02:32:44.404Z,99.99
2023-04-16T02:33:44.410Z,99.99
2023-04-16T02:34:44.406Z,99.99
2023-04-16T02:35:44.371Z,99.99
2023-04-16T02:36:44.365Z,99.99
2023-04-16T02:37:44.416Z,99.99
2023-04-16T02:38:44.363Z,99.99
2023-04-16T02:39:44.392Z,99.99
2023-04-16T02:40:44.330Z,99.99
2023-04-16T02:41:44.305Z,99.99
2023-04-16T02:42:44.364Z,99.99
2023-04-16T02:43:44.350Z,99.99
2023-04-16T02:44:44.283Z,99.99
2023-04-16T02:45:44.360Z,99.99
2023-04-16T02:46:44.282Z,99.99
2023-04-16T02:47:44.306Z,99.99
2023-04-16T02:48:44.280Z,99.99
2023-04-16T02:49:45.012Z,99.99
2023-04-16T02:50:44.229Z,99.99
2023-04-16T02:51:44.243Z,99.99
2023-04-16T02:52:44.215Z,99.99
2023-04-16T02:53:44.177Z,99.99
2023-04-16T02:54:44.169Z,99.99
2023-04-16T02:55:44.154Z,99.99
2023-04-16T02:56:44.186Z,99.99
2023-04-16T02:57:44.168Z,99.99
2023-04-16T02:58:44.119Z,99.99
2023-04-16T02:59:44.127Z,99.99
2023-04-16T03:00:44.150Z,99.99
2023-04-16T03:01:44.182Z,99.99
2023-04-16T03:02:44.132Z,99.99
2023-04-16T03:03:44.091Z,99.99
2023-04-16T03:04:44.107Z,99.99
2023-04-16T03:05:44.053Z,99.99
2023-04-16T03:06:44.106Z,99.99
2023-04-16T03:07:44.048Z,99.99
2023-04-16T03:08:44.023Z,99.99
2023-04-16T03:09:44.037Z,99.99
2023-04-16T03:10:43.993Z,99.99
2023-04-16T03:11:44.008Z,99.99
2023-04-16T03:12:44.031Z,99.99
2023-04-16T03:13:44.015Z,99.99
2023-04-16T03:14:43.976Z,99.99
2023-04-16T03:15:43.991Z,99.99
2023-04-16T03:16:43.976Z,99.99
2023-04-16T03:17:44.014Z,99.99
2023-04-16T03:18:43.935Z,99.99
2023-04-16T03:19:43.938Z,99.99
2023-04-16T03:20:43.914Z,99.99
2023-04-16T03:21:43.894Z,99.99
2023-04-16T03:22:43.895Z,99.99
2023-04-16T03:23:43.933Z,99.99
2023-04-16T03:24:43.859Z,99.99
2023-04-16T03:25:43.879Z,99.99
2023-04-16T03:26:43.821Z,99.99
2023-04-16T03:27:43.838Z,99.99
2023-04-16T03:28:43.807Z,99.99
2023-04-16T03:29:43.919Z,99.99
2023-04-16T03:30:43.815Z,99.99
2023-04-16T03:31:43.855Z,99.99
2023-04-16T03:32:43.864Z,99.99
2023-04-16T03:33:43.766Z,99.99
2023-04-16T03:34:43.796Z,99.99
2023-04-16T03:35:43.799Z,99.99
2023-04-16T03:36:43.747Z,99.99
2023-04-16T03:37:43.744Z,99.99
2023-04-16T03:38:43.750Z,99.99
2023-04-16T03:39:43.727Z,99.99
2023-04-16T03:40:43.703Z,99.99
2023-04-16T03:41:43.706Z,99.99
2023-04-16T03:42:43.679Z,99.99
2023-04-16T03:43:43.705Z,99.99
2023-04-16T03:44:43.672Z,99.99
2023-04-16T03:45:43.631Z,99.99
2023-04-16T03:46:43.657Z,99.99
2023-04-16T03:47:43.725Z,99.99
2023-04-16T03:48:43.626Z,99.99
2023-04-16T03:49:43.604Z,99.99
2023-04-16T03:50:43.628Z,99.99
2023-04-16T03:51:43.569Z,99.99
2023-04-16T03:52:43.618Z,99.99
2023-04-16T03:53:43.560Z,99.99
2023-04-16T03:54:43.602Z,99.99
2023-04-16T03:55:43.530Z,99.99
2023-04-16T03:56:43.481Z,99.99
2023-04-16T03:57:43.495Z,99.99
2023-04-16T03:58:43.494Z,99.99
2023-04-16T03:59:43.531Z,99.99
2023-04-16T04:00:43.475Z,99.99
2023-04-16T04:01:43.508Z,99.99
2023-04-16T04:02:43.693Z,99.99
2023-04-16T04:03:43.652Z,99.99
2023-04-16T04:04:43.580Z,99.99
2023-04-16T04:05:43.453Z,99.99
2023-04-16T04:06:43.419Z,99.99
2023-04-16T04:07:43.347Z,99.99
2023-04-16T04:08:43.352Z,99.99
2023-04-16T04:09:43.321Z,99.99
2023-04-16T04:10:43.441Z,99.99
2023-04-16T04:11:43.348Z,99.99
2023-04-16T04:12:43.274Z,99.99
2023-04-16T04:13:43.305Z,99.99
2023-04-16T04:14:43.552Z,99.99
2023-04-16T04:15:43.272Z,99.99
2023-04-16T04:16:43.289Z,99.99
2023-04-16T04:17:43.346Z,99.99
2023-04-16T04:18:44.444Z,99.99
2023-04-16T04:19:54.378Z,99.99
2023-04-16T04:20:43.221Z,99.99
2023-04-16T04:21:43.192Z,99.99
2023-04-16T04:22:43.168Z,99.99
2023-04-16T04:23:43.193Z,99.99
2023-04-16T04:24:43.185Z,99.99
2023-04-16T04:25:43.411Z,99.99
2023-04-16T04:26:43.147Z,99.99
2023-04-16T04:27:43.132Z,99.99
2023-04-16T04:28:43.148Z,99.99
2023-04-16T04:29:43.136Z,99.99
2023-04-16T04:30:43.118Z,99.99
2023-04-16T04:31:43.169Z,99.99
2023-04-16T04:32:43.170Z,99.99
2023-04-16T04:33:43.124Z,99.99
2023-04-16T04:34:43.106Z,99.99
2023-04-16T04:35:43.106Z,99.99
2023-04-16T04:36:43.033Z,99.99
2023-04-16T04:37:43.079Z,99.99
2023-04-16T04:38:43.077Z,99.99
2023-04-16T04:39:43.004Z,99.99
2023-04-16T04:40:43.056Z,99.99
2023-04-16T04:41:42.962Z,99.99
2023-04-16T04:42:43.022Z,99.99
2023-04-16T04:43:43.002Z,99.99
2023-04-16T04:44:42.969Z,99.99
2023-04-16T04:45:43.028Z,99.99
2023-04-16T04:46:42.980Z,99.99
2023-04-16T04:47:42.948Z,99.99
2023-04-16T04:48:42.953Z,99.99
2023-04-16T04:49:42.907Z,99.99
2023-04-16T04:50:42.889Z,99.99
2023-04-16T04:51:42.912Z,99.99
2023-04-16T04:52:42.942Z,99.99
2023-04-16T04:53:42.867Z,99.99
2023-04-16T04:54:42.841Z,99.99
2023-04-16T04:55:42.853Z,99.99
2023-04-16T04:56:42.808Z,99.99
2023-04-16T04:57:42.846Z,99.99
2023-04-16T04:58:42.812Z,99.99
2023-04-16T04:59:42.789Z,99.99
2023-04-16T05:00:42.812Z,99.99
2023-04-16T05:01:42.744Z,99.99
2023-04-16T05:02:43.097Z,99.99
2023-04-16T05:03:42.814Z,99.99
2023-04-16T05:04:42.767Z,99.99
2023-04-16T05:05:42.733Z,99.99
2023-04-16T05:06:42.716Z,99.99
2023-04-16T05:07:42.721Z,99.99
2023-04-16T05:08:42.686Z,99.99
2023-04-16T05:09:42.702Z,99.99
2023-04-16T05:10:42.690Z,99.99
2023-04-16T05:11:42.638Z,99.99
2023-04-16T05:12:43.055Z,99.99
2023-04-16T05:13:42.633Z,99.99
2023-04-16T05:14:42.675Z,99.99
2023-04-16T05:15:42.603Z,99.99
2023-04-16T05:16:42.644Z,99.99
2023-04-16T05:17:42.698Z,99.99
2023-04-16T05:18:42.589Z,99.99
2023-04-16T05:19:42.569Z,99.99
2023-04-16T05:20:42.644Z,99.99
2023-04-16T05:21:42.567Z,99.99
2023-04-16T05:22:42.632Z,99.99
2023-04-16T05:23:42.517Z,99.99
2023-04-16T05:24:42.520Z,99.99
2023-04-16T05:25:42.530Z,99.99
2023-04-16T05:26:42.548Z,99.99
2023-04-16T05:27:42.485Z,99.99
2023-04-16T05:28:42.544Z,99.99
2023-04-16T05:29:42.503Z,99.99
2023-04-16T05:30:42.531Z,99.99
2023-04-16T05:31:42.427Z,99.99
2023-04-16T05:32:42.509Z,99.99
2023-04-16T05:33:42.444Z,99.99
2023-04-16T05:34:42.418Z,99.99
2023-04-16T05:35:42.436Z,99.99
2023-04-16T05:36:42.381Z,99.99
2023-04-16T05:37:42.362Z,99.99
2023-04-16T05:38:42.364Z,99.99
2023-04-16T05:39:42.435Z,99.99
2023-04-16T05:40:42.368Z,99.99
2023-04-16T05:41:42.324Z,99.99
2023-04-16T05:42:42.332Z,99.99
2023-04-16T05:43:42.502Z,99.99
2023-04-16T05:44:42.329Z,99.99
2023-04-16T05:45:42.296Z,99.99
2023-04-16T05:46:42.282Z,99.99
2023-04-16T05:47:42.380Z,99.99
2023-04-16T05:48:42.301Z,99.99
2023-04-16T05:49:42.263Z,99.99
2023-04-16T05:50:42.251Z,99.99
2023-04-16T05:51:42.210Z,99.99
2023-04-16T05:52:42.344Z,99.99
2023-04-16T05:53:42.249Z,99.99
2023-04-16T05:54:42.268Z,99.99
2023-04-16T05:55:42.244Z,99.99
2023-04-16T05:56:42.198Z,99.99
2023-04-16T05:57:42.186Z,99.99
2023-04-16T05:58:42.194Z,99.99
2023-04-16T05:59:42.149Z,99.99
2023-04-16T06:00:42.187Z,99.99
2023-04-16T06:01:42.123Z,99.99
2023-04-16T06:02:42.384Z,99.99
2023-04-16T06:03:42.233Z,99.99
2023-04-16T06:04:42.084Z,99.99
2023-04-16T06:05:42.171Z,99.99
2023-04-16T06:06:42.063Z,99.99
2023-04-16T06:07:42.090Z,99.99
2023-04-16T06:08:42.023Z,99.99
2023-04-16T06:09:42.045Z,99.99
2023-04-16T06:10:42.035Z,99.99
2023-04-16T06:11:42.042Z,99.99
2023-04-16T06:12:42.004Z,99.99
2023-04-16T06:13:41.987Z,99.99
2023-04-16T06:14:42.017Z,99.99
2023-04-16T06:15:41.968Z,99.99
2023-04-16T06:16:41.976Z,99.99
2023-04-16T06:17:41.976Z,99.99
2023-04-16T06:18:41.932Z,99.99
2023-04-16T06:19:41.917Z,99.99
2023-04-16T06:20:41.921Z,99.99
2023-04-16T06:21:41.916Z,99.99
2023-04-16T06:22:41.904Z,99.99
2023-04-16T06:23:41.862Z,99.99
2023-04-16T06:24:41.869Z,99.99
2023-04-16T06:25:41.866Z,99.99
2023-04-16T06:26:41.834Z,99.99
2023-04-16T06:27:41.899Z,99.99
2023-04-16T06:28:41.804Z,99.99
2023-04-16T06:29:42.065Z,99.99
2023-04-16T06:30:43.369Z,99.99
2023-04-16T06:31:41.819Z,99.99
2023-04-16T06:32:41.870Z,99.99
2023-04-16T06:33:41.746Z,99.99
2023-04-16T06:34:41.772Z,99.99
2023-04-16T06:35:41.742Z,99.99
2023-04-16T06:36:41.738Z,99.99
2023-04-16T06:37:41.741Z,99.99
2023-04-16T06:38:41.710Z,99.99
2023-04-16T06:39:41.696Z,99.99
2023-04-16T06:40:41.677Z,99.99
2023-04-16T06:41:41.748Z,99.99
2023-04-16T06:42:43.540Z,99.99
2023-04-16T06:43:41.637Z,99.99
2023-04-16T06:44:41.719Z,99.99
2023-04-16T06:45:41.662Z,99.99
2023-04-16T06:46:41.628Z,99.99
2023-04-16T06:47:41.676Z,99.99
2023-04-16T06:48:41.628Z,99.99
2023-04-16T06:49:41.590Z,99.99
2023-04-16T06:50:41.572Z,99.99
2023-04-16T06:51:41.562Z,99.99
2023-04-16T06:52:42.327Z,99.99
2023-04-16T06:53:41.596Z,99.99
2023-04-16T06:54:41.571Z,99.99
2023-04-16T06:55:41.502Z,99.99
2023-04-16T06:56:41.510Z,99.99
2023-04-16T06:57:41.552Z,99.99
2023-04-16T06:58:41.500Z,99.99
2023-04-16T06:59:41.476Z,99.99
2023-04-16T07:00:41.537Z,99.99
2023-04-16T07:01:41.496Z,99.99
2023-04-16T07:02:41.530Z,99.99
2023-04-16T07:03:41.531Z,99.99
2023-04-16T07:04:41.489Z,99.99
2023-04-16T07:05:41.405Z,99.99
2023-04-16T07:06:41.421Z,99.93
2023-04-16T07:07:41.408Z,99.89
2023-04-16T07:08:41.418Z,99.99
2023-04-16T07:09:41.388Z,99.89
2023-04-16T07:10:41.391Z,99.68
2023-04-16T07:11:41.392Z,99.07
2023-04-16T07:12:41.359Z,99.17
2023-04-16T07:13:41.343Z,99.38
2023-04-16T07:14:41.307Z,99.38
2023-04-16T07:15:41.302Z,99.58
2023-04-16T07:16:41.395Z,99.38
2023-04-16T07:17:41.333Z,99.27
2023-04-16T07:18:41.312Z,99.17
2023-04-16T07:19:41.255Z,99.38
2023-04-16T07:20:41.323Z,99.58
2023-04-16T07:21:41.267Z,99.48
2023-04-16T07:22:41.268Z,99.68
2023-04-16T07:23:41.273Z,99.17
2023-04-16T07:24:41.305Z,98.96
2023-04-16T07:25:41.225Z,98.66
2023-04-16T07:26:41.222Z,98.96
2023-04-16T07:27:41.214Z,98.86
2023-04-16T07:28:41.216Z,98.86
2023-04-16T07:29:41.157Z,98.76
2023-04-16T07:30:41.196Z,98.71
2023-04-16T07:31:41.160Z,98.20
2023-04-16T07:32:41.178Z,98.30
2023-04-16T07:33:41.124Z,98.20
2023-04-16T07:34:41.123Z,97.99
2023-04-16T07:35:41.127Z,97.38
2023-04-16T07:36:41.119Z,97.69
2023-04-16T07:37:41.085Z,97.79
2023-04-16T07:38:41.117Z,97.99
2023-04-16T07:39:41.086Z,97.79
2023-04-16T07:40:41.054Z,97.89
2023-04-16T07:41:41.140Z,97.17
2023-04-16T07:42:41.045Z,97.38
2023-04-16T07:43:41.014Z,97.58
2023-04-16T07:44:41.077Z,97.69
2023-04-16T07:45:41.474Z,97.79
2023-04-16T07:46:46.907Z,97.58
2023-04-16T07:47:41.031Z,97.28
2023-04-16T07:48:41.006Z,97.79
2023-04-16T07:49:40.936Z,97.58
2023-04-16T07:50:40.977Z,97.79
2023-04-16T07:51:40.930Z,97.17
2023-04-16T07:52:40.920Z,97.07
2023-04-16T07:53:40.954Z,97.17
2023-04-16T07:54:40.961Z,97.69
2023-04-16T07:55:40.887Z,98.20
2023-04-16T07:56:40.946Z,97.79
2023-04-16T07:57:40.860Z,97.69
2023-04-16T07:58:41.002Z,97.79
2023-04-16T07:59:40.864Z,97.79
2023-04-16T08:00:40.857Z,97.17
2023-04-16T08:01:40.812Z,97.38
2023-04-16T08:02:40.978Z,97.38
2023-04-16T08:03:40.999Z,97.28
2023-04-16T08:04:40.958Z,97.69
2023-04-16T08:05:40.777Z,96.77
2023-04-16T08:06:40.774Z,96.72
2023-04-16T08:07:40.809Z,96.72
2023-04-16T08:08:40.790Z,96.72
2023-04-16T08:09:40.760Z,95.59
2023-04-16T08:10:40.749Z,95.28
2023-04-16T08:11:40.715Z,95.28
2023-04-16T08:12:40.748Z,95.44
2023-04-16T08:13:40.729Z,95.75
2023-04-16T08:14:40.697Z,96.16
2023-04-16T08:15:40.740Z,95.70
2023-04-16T08:16:40.726Z,95.50
2023-04-16T08:17:40.742Z,95.20
2023-04-16T08:18:40.689Z,95.09
2023-04-16T08:19:40.644Z,95.29
2023-04-16T08:20:40.666Z,96.28
2023-04-16T08:21:40.675Z,96.38
2023-04-16T08:22:40.605Z,96.38
2023-04-16T08:23:40.590Z,96.48
2023-04-16T08:24:40.597Z,94.74
2023-04-16T08:25:40.572Z,95.36
2023-04-16T08:26:40.584Z,95.76
2023-04-16T08:27:40.575Z,95.87
2023-04-16T08:28:40.555Z,95.46
2023-04-16T08:29:40.544Z,96.07
2023-04-16T08:30:40.591Z,96.17
2023-04-16T08:31:40.557Z,96.58
2023-04-16T08:32:40.575Z,96.58
2023-04-16T08:33:40.501Z,95.87
2023-04-16T08:34:40.480Z,96.28
2023-04-16T08:35:40.466Z,96.28
2023-04-16T08:36:40.475Z,95.25
2023-04-16T08:37:40.444Z,95.87
2023-04-16T08:38:40.432Z,95.76
2023-04-16T08:39:40.466Z,95.87
2023-04-16T08:40:40.450Z,95.66
2023-04-16T08:41:40.452Z,95.25
2023-04-16T08:42:40.514Z,95.05
2023-04-16T08:43:40.362Z,95.31
2023-04-16T08:44:40.406Z,95.31
2023-04-16T08:45:40.377Z,95.72
2023-04-16T08:46:40.466Z,95.51
2023-04-16T08:47:40.389Z,94.49
2023-04-16T08:48:40.387Z,94.08
2023-04-16T08:49:40.428Z,94.59
2023-04-16T08:50:40.740Z,94.49
2023-04-16T08:51:40.296Z,95.51
2023-04-16T08:52:40.329Z,95.31
2023-04-16T08:53:40.280Z,95.51
2023-04-16T08:54:40.302Z,95.41
2023-04-16T08:55:40.275Z,94.96
2023-04-16T08:56:42.882Z,94.65
2023-04-16T08:57:40.257Z,94.49
2023-04-16T08:58:40.211Z,94.80
2023-04-16T08:59:40.251Z,94.59
2023-04-16T09:00:40.207Z,94.39
2023-04-16T09:01:40.258Z,95.31
2023-04-16T09:02:40.578Z,95.31
2023-04-16T09:03:40.257Z,95.41
2023-04-16T09:04:40.306Z,95.51
2023-04-16T09:05:40.180Z,95.41
2023-04-16T09:06:40.279Z,94.74
2023-04-16T09:07:40.190Z,94.54
2023-04-16T09:08:40.149Z,95.56
2023-04-16T09:09:40.135Z,95.87
2023-04-16T09:10:40.173Z,95.05
2023-04-16T09:11:40.099Z,95.41
2023-04-16T09:12:40.088Z,95.62
2023-04-16T09:13:40.098Z,95.41
2023-04-16T09:14:40.051Z,94.08
2023-04-16T09:15:40.085Z,93.63
2023-04-16T09:16:40.235Z,93.01
2023-04-16T09:17:40.215Z,93.89
2023-04-16T09:18:40.022Z,92.87
2023-04-16T09:19:40.035Z,91.74
2023-04-16T09:20:40.029Z,92.01
2023-04-16T09:21:40.034Z,92.42
2023-04-16T09:22:40.016Z,92.42
2023-04-16T09:23:39.987Z,91.15
2023-04-16T09:24:39.962Z,91.46
2023-04-16T09:25:39.946Z,91.66
2023-04-16T09:26:39.970Z,91.86
2023-04-16T09:27:39.943Z,89.61
2023-04-16T09:28:39.947Z,89.72
2023-04-16T09:29:39.907Z,89.20
2023-04-16T09:30:39.895Z,89.61
2023-04-16T09:31:40.006Z,90.80
2023-04-16T09:32:39.932Z,89.58
2023-04-16T09:33:39.901Z,89.67
2023-04-16T09:34:39.847Z,89.47
2023-04-16T09:35:39.883Z,89.17
2023-04-16T09:36:39.827Z,90.39
2023-04-16T09:37:39.861Z,89.26
2023-04-16T09:38:39.810Z,89.17
2023-04-16T09:39:39.854Z,89.84
2023-04-16T09:40:39.791Z,89.63
2023-04-16T09:41:39.856Z,90.04
2023-04-16T09:42:39.960Z,89.12
2023-04-16T09:43:39.781Z,87.38
2023-04-16T09:44:39.741Z,87.14
2023-04-16T09:45:39.794Z,87.35
2023-04-16T09:46:39.772Z,87.35
2023-04-16T09:47:39.859Z,88.26
2023-04-16T09:48:39.726Z,87.35
2023-04-16T09:49:39.701Z,89.59
2023-04-16T09:50:39.709Z,88.57
2023-04-16T09:51:39.700Z,89.18
2023-04-16T09:52:39.730Z,88.06
2023-04-16T09:53:39.663Z,89.14
2023-04-16T09:54:39.681Z,88.53
2023-04-16T09:55:39.668Z,89.34
2023-04-16T09:56:39.613Z,88.93
2023-04-16T09:57:39.648Z,89.55
2023-04-16T09:58:39.608Z,90.26
2023-04-16T09:59:39.578Z,87.10
2023-04-16T10:00:43.225Z,86.49
2023-04-16T10:01:39.607Z,87.51
2023-04-16T10:02:39.786Z,86.45
2023-04-16T10:03:40.039Z,85.53
2023-04-16T10:04:39.604Z,86.55
2023-04-16T10:05:39.533Z,86.24
2023-04-16T10:06:39.560Z,88.49
2023-04-16T10:07:39.512Z,88.45
2023-04-16T10:08:39.553Z,87.02
2023-04-16T10:09:39.503Z,87.53
2023-04-16T10:10:39.469Z,87.84
2023-04-16T10:11:39.490Z,86.15
2023-04-16T10:12:39.480Z,86.35
2023-04-16T10:13:39.452Z,89.10
2023-04-16T10:14:39.485Z,88.53
2023-04-16T10:15:39.459Z,87.92
2023-04-16T10:16:39.526Z,88.63
2023-04-16T10:17:39.484Z,88.22
2023-04-16T10:18:39.380Z,88.02
2023-04-16T10:19:39.392Z,87.82
2023-04-16T10:20:39.476Z,89.14
2023-04-16T10:21:39.391Z,88.73
2023-04-16T10:22:39.357Z,89.55
2023-04-16T10:23:39.355Z,89.45
2023-04-16T10:24:39.357Z,88.43
2023-04-16T10:25:39.356Z,88.43
2023-04-16T10:26:39.304Z,87.30
2023-04-16T10:27:39.321Z,87.71
2023-04-16T10:28:39.320Z,89.04
2023-04-16T10:29:39.329Z,87.00
2023-04-16T10:30:39.288Z,87.47
2023-04-16T10:31:39.263Z,87.77
2023-04-16T10:32:39.242Z,86.15
2023-04-16T10:33:39.262Z,85.74
2023-04-16T10:34:39.225Z,86.45
2023-04-16T10:35:39.276Z,86.15
2023-04-16T10:36:39.188Z,86.24
2023-04-16T10:37:39.250Z,87.77
2023-04-16T10:38:39.187Z,87.63
2023-04-16T10:39:39.212Z,86.92
2023-04-16T10:40:39.168Z,88.65
2023-04-16T10:41:39.187Z,87.49
2023-04-16T10:42:39.170Z,85.45
2023-04-16T10:43:39.173Z,83.62
2023-04-16T10:44:39.110Z,81.99
2023-04-16T10:45:39.125Z,81.79
2023-04-16T10:46:39.257Z,81.58
2023-04-16T10:47:39.183Z,83.42
2023-04-16T10:48:49.251Z,84.80
2023-04-16T10:49:39.099Z,85.00
2023-04-16T10:50:39.050Z,84.45
2023-04-16T10:51:39.075Z,84.45
2023-04-16T10:52:40.260Z,83.54
2023-04-16T10:53:39.039Z,83.54
2023-04-16T10:54:38.998Z,82.82
2023-04-16T10:55:38.998Z,82.73
2023-04-16T10:56:39.005Z,81.81
2023-04-16T10:57:39.016Z,83.74
2023-04-16T10:58:38.990Z,81.91
2023-04-16T10:59:38.960Z,81.71
2023-04-16T11:00:38.931Z,81.20
2023-04-16T11:01:38.978Z,81.91
2023-04-16T11:02:39.057Z,79.47
2023-04-16T11:03:39.029Z,78.15
2023-04-16T11:04:39.073Z,81.81
2023-04-16T11:05:38.943Z,82.79
2023-04-16T11:06:38.900Z,81.67
2023-04-16T11:07:38.901Z,80.96
2023-04-16T11:08:51.197Z,81.53
2023-04-16T11:09:38.880Z,82.04
2023-04-16T11:10:38.853Z,79.50
2023-04-16T11:11:38.860Z,81.02
2023-04-16T11:12:38.825Z,79.50
2023-04-16T11:13:38.813Z,81.73
2023-04-16T11:14:38.779Z,82.34
2023-04-16T11:15:39.604Z,82.45
2023-04-16T11:16:38.812Z,79.39
2023-04-16T11:17:38.794Z,80.45
2023-04-16T11:18:38.750Z,79.09
2023-04-16T11:19:38.756Z,79.90
2023-04-16T11:20:38.789Z,79.09
2023-04-16T11:21:38.728Z,81.33
2023-04-16T11:22:38.770Z,79.86
2023-04-16T11:23:38.684Z,77.63
2023-04-16T11:24:38.733Z,78.75
2023-04-16T11:25:39.495Z,77.22
2023-04-16T11:26:38.691Z,79.16
2023-04-16T11:27:38.707Z,79.05
2023-04-16T11:28:38.646Z,79.25
2023-04-16T11:29:38.657Z,80.27
2023-04-16T11:30:38.644Z,79.25
2023-04-16T11:31:38.663Z,75.40
2023-04-16T11:32:38.618Z,74.01
2023-04-16T11:33:38.603Z,75.43
2023-04-16T11:34:38.578Z,76.14
2023-04-16T11:35:38.632Z,76.65
2023-04-16T11:36:38.557Z,77.67
2023-04-16T11:37:38.551Z,79.05
2023-04-16T11:38:38.583Z,80.07
2023-04-16T11:39:38.558Z,76.25
2023-04-16T11:40:38.566Z,76.59
2023-04-16T11:41:38.538Z,76.48
2023-04-16T11:42:38.551Z,79.13
2023-04-16T11:43:38.528Z,79.68
2023-04-16T11:44:38.473Z,79.16
2023-04-16T11:45:38.454Z,78.76
2023-04-16T11:46:38.480Z,78.76
2023-04-16T11:47:38.448Z,78.19
2023-04-16T11:48:38.506Z,80.73
2023-04-16T11:49:38.451Z,80.49
2023-04-16T11:50:38.410Z,78.59
2023-04-16T11:51:38.414Z,77.87
2023-04-16T11:52:38.435Z,78.28
2023-04-16T11:53:38.393Z,78.19
2023-04-16T11:54:38.363Z,78.69
2023-04-16T11:55:38.376Z,78.39
2023-04-16T11:56:38.327Z,79.50
2023-04-16T11:57:38.383Z,79.91
2023-04-16T11:58:38.332Z,78.49
2023-04-16T11:59:38.442Z,78.89
2023-04-16T12:00:38.301Z,79.20
2023-04-16T12:01:38.369Z,78.59
2023-04-16T12:02:38.402Z,79.41
2023-04-16T12:03:38.444Z,79.91
2023-04-16T12:04:38.386Z,78.35
2023-04-16T12:05:38.268Z,79.57
2023-04-16T12:06:38.228Z,78.45
2023-04-16T12:07:38.248Z,77.33
2023-04-16T12:08:38.204Z,78.08
2023-04-16T12:09:40.518Z,76.76
2023-04-16T12:10:38.236Z,78.08
2023-04-16T12:11:38.177Z,77.87
2023-04-16T12:12:38.194Z,78.39
2023-04-16T12:13:38.173Z,79.50
2023-04-16T12:14:38.142Z,78.19
2023-04-16T12:15:38.157Z,79.41
2023-04-16T12:16:38.192Z,80.32
2023-04-16T12:17:38.196Z,79.14
2023-04-16T12:18:38.121Z,78.32
2023-04-16T12:19:38.094Z,79.24
2023-04-16T12:20:38.109Z,80.16
2023-04-16T12:21:38.106Z,79.85
2023-04-16T12:22:38.083Z,80.56
2023-04-16T12:23:38.051Z,80.77
2023-04-16T12:24:38.038Z,79.71
2023-04-16T12:25:38.101Z,77.78
2023-04-16T12:26:38.178Z,76.86
2023-04-16T12:27:38.123Z,78.39
2023-04-16T12:28:38.005Z,77.78
2023-04-16T12:29:37.994Z,77.37
2023-04-16T12:30:37.984Z,78.89
2023-04-16T12:31:38.001Z,78.19
2023-04-16T12:32:38.033Z,79.47
2023-04-16T12:33:37.965Z,78.05
2023-04-16T12:34:48.630Z,79.37
2023-04-16T12:35:37.958Z,80.79
2023-04-16T12:36:37.923Z,79.27
2023-04-16T12:37:37.954Z,78.25
2023-04-16T12:38:37.902Z,77.91
2023-04-16T12:39:37.946Z,76.59
2023-04-16T12:40:37.880Z,78.82
2023-04-16T12:41:37.859Z,75.57
2023-04-16T12:42:37.865Z,75.67
2023-04-16T12:43:37.896Z,77.50
2023-04-16T12:44:37.929Z,76.25
2023-04-16T12:45:37.822Z,78.48
2023-04-16T12:46:37.896Z,76.25
2023-04-16T12:47:37.905Z,77.63
2023-04-16T12:48:37.782Z,76.21
2023-04-16T12:49:37.809Z,75.09
2023-04-16T12:50:37.801Z,73.16
2023-04-16T12:51:37.766Z,73.77
2023-04-16T12:52:37.770Z,73.26